sensor_id;sensor_type;location;lat;lon;timestamp;pressure;altitude;pressure_sealevel;temperature;humidity
35910;BME280;22004;49.120;-0.200;2023-07-09T00:01:50;101636.41;;;19.19;79.10
35910;BME280;22004;49.120;-0.200;2023-07-09T00:04:17;101641.31;;;19.49;78.14
35910;BME280;22004;49.120;-0.200;2023-07-09T00:06:43;101636.25;;;19.52;77.76
35910;BME280;22004;49.120;-0.200;2023-07-09T00:09:16;101634.41;;;19.46;77.72
35910;BME280;22004;49.120;-0.200;2023-07-09T00:11:43;101631.88;;;19.51;77.89
35910;BME280;22004;49.120;-0.200;2023-07-09T00:14:13;101624.13;;;19.48;77.83
35910;BME280;22004;49.120;-0.200;2023-07-09T00:16:40;101626.84;;;19.48;77.73
35910;BME280;22004;49.120;-0.200;2023-07-09T00:19:18;101627.72;;;19.42;77.81
35910;BME280;22004;49.120;-0.200;2023-07-09T00:21:46;101633.84;;;19.37;78.07
35910;BME280;22004;49.120;-0.200;2023-07-09T00:24:14;101635.84;;;19.04;80.14
35910;BME280;22004;49.120;-0.200;2023-07-09T00:26:40;101643.25;;;19.42;78.34
35910;BME280;22004;49.120;-0.200;2023-07-09T00:29:12;101648.91;;;19.40;77.95
35910;BME280;22004;49.120;-0.200;2023-07-09T00:31:38;101645.56;;;19.38;77.96
35910;BME280;22004;49.120;-0.200;2023-07-09T00:34:07;101645.09;;;19.48;77.71
35910;BME280;22004;49.120;-0.200;2023-07-09T00:36:33;101646.75;;;19.49;77.91
35910;BME280;22004;49.120;-0.200;2023-07-09T00:38:59;101645.97;;;19.42;77.66
35910;BME280;22004;49.120;-0.200;2023-07-09T00:41:35;101656.66;;;19.36;77.85
35910;BME280;22004;49.120;-0.200;2023-07-09T00:44:29;101652.47;;;19.41;77.95
35910;BME280;22004;49.120;-0.200;2023-07-09T00:49:41;101648.88;;;19.47;77.70
35910;BME280;22004;49.120;-0.200;2023-07-09T00:52:24;101651.91;;;19.25;77.94
35910;BME280;22004;49.120;-0.200;2023-07-09T00:54:53;101656.44;;;19.45;77.58
35910;BME280;22004;49.120;-0.200;2023-07-09T00:57:24;101653.53;;;19.40;77.64
35910;BME280;22004;49.120;-0.200;2023-07-09T00:59:55;101669.00;;;19.39;77.64
35910;BME280;22004;49.120;-0.200;2023-07-09T01:02:22;101664.09;;;19.16;77.85
35910;BME280;22004;49.120;-0.200;2023-07-09T01:04:59;101660.34;;;19.55;77.34
35910;BME280;22004;49.120;-0.200;2023-07-09T01:07:27;101666.47;;;19.44;77.35
35910;BME280;22004;49.120;-0.200;2023-07-09T01:09:53;101671.66;;;19.52;77.21
35910;BME280;22004;49.120;-0.200;2023-07-09T01:12:20;101665.41;;;19.52;77.31
35910;BME280;22004;49.120;-0.200;2023-07-09T01:14:46;101661.88;;;19.45;77.47
35910;BME280;22004;49.120;-0.200;2023-07-09T01:17:13;101658.56;;;19.36;77.61
35910;BME280;22004;49.120;-0.200;2023-07-09T01:19:41;101665.91;;;19.29;77.92
35910;BME280;22004;49.120;-0.200;2023-07-09T01:22:15;101657.28;;;19.38;77.47
35910;BME280;22004;49.120;-0.200;2023-07-09T01:25:02;101657.09;;;19.33;77.60
35910;BME280;22004;49.120;-0.200;2023-07-09T01:30:08;101670.53;;;19.28;77.74
35910;BME280;22004;49.120;-0.200;2023-07-09T01:32:37;101675.97;;;19.35;77.66
35910;BME280;22004;49.120;-0.200;2023-07-09T01:35:04;101678.03;;;19.33;77.58
35910;BME280;22004;49.120;-0.200;2023-07-09T01:37:34;101680.75;;;19.33;77.76
35910;BME280;22004;49.120;-0.200;2023-07-09T01:40:00;101687.59;;;18.04;81.32
35910;BME280;22004;49.120;-0.200;2023-07-09T01:42:26;101682.41;;;18.56;81.29
35910;BME280;22004;49.120;-0.200;2023-07-09T01:44:54;101684.81;;;19.17;78.61
35910;BME280;22004;49.120;-0.200;2023-07-09T01:47:20;101681.28;;;19.10;79.00
35910;BME280;22004;49.120;-0.200;2023-07-09T01:49:46;101681.44;;;19.22;78.23
35910;BME280;22004;49.120;-0.200;2023-07-09T01:52:13;101693.78;;;19.24;78.25
35910;BME280;22004;49.120;-0.200;2023-07-09T01:54:39;101697.78;;;19.22;78.09
35910;BME280;22004;49.120;-0.200;2023-07-09T01:57:27;101703.03;;;19.17;78.08
35910;BME280;22004;49.120;-0.200;2023-07-09T02:00:01;101700.31;;;19.17;78.18
35910;BME280;22004;49.120;-0.200;2023-07-09T02:02:29;101700.78;;;19.00;79.06
35910;BME280;22004;49.120;-0.200;2023-07-09T02:04:56;101712.66;;;19.13;78.40
35910;BME280;22004;49.120;-0.200;2023-07-09T02:07:23;101709.91;;;19.19;78.14
35910;BME280;22004;49.120;-0.200;2023-07-09T02:09:49;101707.41;;;19.18;78.13
35910;BME280;22004;49.120;-0.200;2023-07-09T02:12:16;101689.41;;;19.17;78.04
35910;BME280;22004;49.120;-0.200;2023-07-09T02:14:42;101697.81;;;19.08;78.50
35910;BME280;22004;49.120;-0.200;2023-07-09T02:17:09;101708.28;;;19.11;78.24
35910;BME280;22004;49.120;-0.200;2023-07-09T02:19:35;101706.81;;;19.09;78.35
35910;BME280;22004;49.120;-0.200;2023-07-09T02:22:01;101705.34;;;19.20;77.86
35910;BME280;22004;49.120;-0.200;2023-07-09T02:24:26;101720.19;;;19.17;77.98
35910;BME280;22004;49.120;-0.200;2023-07-09T02:26:56;101722.94;;;19.04;78.41
35910;BME280;22004;49.120;-0.200;2023-07-09T02:29:23;101720.63;;;19.21;77.97
35910;BME280;22004;49.120;-0.200;2023-07-09T02:31:50;101724.16;;;19.21;77.73
35910;BME280;22004;49.120;-0.200;2023-07-09T02:34:16;101726.69;;;19.16;78.15
35910;BME280;22004;49.120;-0.200;2023-07-09T02:36:42;101725.00;;;19.22;78.22
35910;BME280;22004;49.120;-0.200;2023-07-09T02:39:12;101713.06;;;19.29;77.94
35910;BME280;22004;49.120;-0.200;2023-07-09T02:41:41;101689.84;;;19.14;78.50
35910;BME280;22004;49.120;-0.200;2023-07-09T02:44:07;101668.66;;;19.22;78.04
35910;BME280;22004;49.120;-0.200;2023-07-09T02:46:33;101675.16;;;19.21;78.22
35910;BME280;22004;49.120;-0.200;2023-07-09T02:48:59;101666.88;;;18.96;79.71
35910;BME280;22004;49.120;-0.200;2023-07-09T02:51:25;101691.97;;;19.05;79.11
35910;BME280;22004;49.120;-0.200;2023-07-09T02:53:53;101693.59;;;19.26;78.10
35910;BME280;22004;49.120;-0.200;2023-07-09T02:56:18;101702.16;;;19.23;78.11
35910;BME280;22004;49.120;-0.200;2023-07-09T02:58:44;101708.66;;;19.22;78.20
35910;BME280;22004;49.120;-0.200;2023-07-09T03:01:09;101706.78;;;19.22;78.38
35910;BME280;22004;49.120;-0.200;2023-07-09T03:03:35;101687.53;;;19.17;78.49
35910;BME280;22004;49.120;-0.200;2023-07-09T03:06:00;101674.16;;;19.09;78.89
35910;BME280;22004;49.120;-0.200;2023-07-09T03:08:25;101663.88;;;19.18;78.29
35910;BME280;22004;49.120;-0.200;2023-07-09T03:10:50;101677.06;;;19.21;78.16
35910;BME280;22004;49.120;-0.200;2023-07-09T03:13:16;101676.78;;;19.29;77.96
35910;BME280;22004;49.120;-0.200;2023-07-09T03:15:41;101666.41;;;19.13;78.78
35910;BME280;22004;49.120;-0.200;2023-07-09T03:18:06;101677.47;;;19.18;78.47
35910;BME280;22004;49.120;-0.200;2023-07-09T03:20:32;101687.69;;;19.29;78.23
35910;BME280;22004;49.120;-0.200;2023-07-09T03:22:57;101674.19;;;18.96;79.71
35910;BME280;22004;49.120;-0.200;2023-07-09T03:25:23;101675.16;;;19.21;78.74
35910;BME280;22004;49.120;-0.200;2023-07-09T03:27:48;101659.50;;;19.03;79.66
35910;BME280;22004;49.120;-0.200;2023-07-09T03:30:14;101651.91;;;19.19;78.63
35910;BME280;22004;49.120;-0.200;2023-07-09T03:32:39;101632.22;;;19.23;78.51
35910;BME280;22004;49.120;-0.200;2023-07-09T03:35:05;101636.34;;;18.88;80.31
35910;BME280;22004;49.120;-0.200;2023-07-09T03:37:30;101673.31;;;19.08;79.44
35910;BME280;22004;49.120;-0.200;2023-07-09T03:39:55;101702.41;;;19.08;79.56
35910;BME280;22004;49.120;-0.200;2023-07-09T03:42:21;101703.09;;;18.97;80.14
35910;BME280;22004;49.120;-0.200;2023-07-09T03:44:46;101685.06;;;19.02;80.09
35910;BME280;22004;49.120;-0.200;2023-07-09T03:47:12;101675.63;;;19.11;79.22
35910;BME280;22004;49.120;-0.200;2023-07-09T03:49:38;101694.88;;;19.17;78.91
35910;BME280;22004;49.120;-0.200;2023-07-09T03:52:03;101711.63;;;19.07;79.48
35910;BME280;22004;49.120;-0.200;2023-07-09T03:54:29;101718.09;;;19.13;79.23
35910;BME280;22004;49.120;-0.200;2023-07-09T03:56:54;101704.91;;;19.16;79.14
35910;BME280;22004;49.120;-0.200;2023-07-09T03:59:20;101694.44;;;19.20;78.66
35910;BME280;22004;49.120;-0.200;2023-07-09T04:01:45;101692.09;;;19.23;78.38
35910;BME280;22004;49.120;-0.200;2023-07-09T04:04:13;101701.34;;;19.22;78.58
35910;BME280;22004;49.120;-0.200;2023-07-09T04:06:39;101690.66;;;19.21;78.51
35910;BME280;22004;49.120;-0.200;2023-07-09T04:09:04;101683.56;;;19.20;78.63
35910;BME280;22004;49.120;-0.200;2023-07-09T04:11:29;101683.97;;;19.17;78.66
35910;BME280;22004;49.120;-0.200;2023-07-09T04:13:55;101675.41;;;19.20;78.64
35910;BME280;22004;49.120;-0.200;2023-07-09T04:16:20;101666.69;;;18.91;79.75
35910;BME280;22004;49.120;-0.200;2023-07-09T04:18:45;101675.63;;;19.11;78.89
35910;BME280;22004;49.120;-0.200;2023-07-09T04:21:11;101682.94;;;19.04;79.25
35910;BME280;22004;49.120;-0.200;2023-07-09T04:23:36;101691.91;;;19.18;78.75
35910;BME280;22004;49.120;-0.200;2023-07-09T04:26:01;101710.81;;;19.06;79.40
35910;BME280;22004;49.120;-0.200;2023-07-09T04:28:28;101721.28;;;19.09;79.20
35910;BME280;22004;49.120;-0.200;2023-07-09T04:30:55;101721.06;;;19.04;79.58
35910;BME280;22004;49.120;-0.200;2023-07-09T04:33:21;101723.97;;;19.16;78.86
35910;BME280;22004;49.120;-0.200;2023-07-09T04:35:46;101725.03;;;19.08;79.22
35910;BME280;22004;49.120;-0.200;2023-07-09T04:38:12;101718.75;;;19.08;79.48
35910;BME280;22004;49.120;-0.200;2023-07-09T04:40:38;101735.06;;;19.08;79.51
35910;BME280;22004;49.120;-0.200;2023-07-09T04:43:03;101764.63;;;18.78;81.04
35910;BME280;22004;49.120;-0.200;2023-07-09T04:45:29;101755.63;;;18.77;81.15
35910;BME280;22004;49.120;-0.200;2023-07-09T04:47:54;101717.53;;;18.84;80.95
35910;BME280;22004;49.120;-0.200;2023-07-09T04:50:19;101694.53;;;18.87;80.59
35910;BME280;22004;49.120;-0.200;2023-07-09T04:52:45;101714.94;;;19.22;78.79
35910;BME280;22004;49.120;-0.200;2023-07-09T04:55:10;101712.22;;;19.22;78.66
35910;BME280;22004;49.120;-0.200;2023-07-09T04:57:35;101686.28;;;19.13;79.18
35910;BME280;22004;49.120;-0.200;2023-07-09T05:00:02;101712.63;;;19.19;79.06
35910;BME280;22004;49.120;-0.200;2023-07-09T05:02:30;101727.34;;;19.11;79.50
35910;BME280;22004;49.120;-0.200;2023-07-09T05:04:55;101740.31;;;19.16;79.09
35910;BME280;22004;49.120;-0.200;2023-07-09T05:07:20;101724.03;;;18.76;81.81
35910;BME280;22004;49.120;-0.200;2023-07-09T05:09:46;101695.38;;;18.41;84.21
35910;BME280;22004;49.120;-0.200;2023-07-09T05:12:12;101674.66;;;18.73;82.46
35910;BME280;22004;49.120;-0.200;2023-07-09T05:14:37;101656.38;;;19.06;80.55
35910;BME280;22004;49.120;-0.200;2023-07-09T05:17:02;101638.69;;;18.71;83.00
35910;BME280;22004;49.120;-0.200;2023-07-09T05:19:29;101655.22;;;18.43;84.44
35910;BME280;22004;49.120;-0.200;2023-07-09T05:21:54;101683.75;;;19.18;80.09
35910;BME280;22004;49.120;-0.200;2023-07-09T05:24:20;101699.44;;;19.29;79.27
35910;BME280;22004;49.120;-0.200;2023-07-09T05:26:45;101700.66;;;19.33;78.48
35910;BME280;22004;49.120;-0.200;2023-07-09T05:29:10;101704.88;;;19.29;78.78
35910;BME280;22004;49.120;-0.200;2023-07-09T05:31:36;101693.84;;;18.98;81.05
35910;BME280;22004;49.120;-0.200;2023-07-09T05:34:02;101693.81;;;19.18;79.40
35910;BME280;22004;49.120;-0.200;2023-07-09T05:36:28;101690.25;;;19.17;79.34
35910;BME280;22004;49.120;-0.200;2023-07-09T05:38:55;101681.03;;;19.25;78.51
35910;BME280;22004;49.120;-0.200;2023-07-09T05:41:21;101676.41;;;19.25;78.86
35910;BME280;22004;49.120;-0.200;2023-07-09T05:43:46;101690.22;;;19.30;78.32
35910;BME280;22004;49.120;-0.200;2023-07-09T05:46:13;101699.66;;;19.21;79.06
35910;BME280;22004;49.120;-0.200;2023-07-09T05:48:38;101714.19;;;18.89;82.07
35910;BME280;22004;49.120;-0.200;2023-07-09T05:51:04;101716.03;;;19.08;80.37
35910;BME280;22004;49.120;-0.200;2023-07-09T05:53:30;101703.63;;;19.19;79.00
35910;BME280;22004;49.120;-0.200;2023-07-09T05:55:57;101712.81;;;19.24;78.92
35910;BME280;22004;49.120;-0.200;2023-07-09T05:58:23;101721.00;;;19.24;79.05
35910;BME280;22004;49.120;-0.200;2023-07-09T06:00:52;101726.47;;;19.18;79.62
35910;BME280;22004;49.120;-0.200;2023-07-09T06:03:24;101725.00;;;19.22;79.07
35910;BME280;22004;49.120;-0.200;2023-07-09T06:05:51;101740.31;;;19.16;79.64
35910;BME280;22004;49.120;-0.200;2023-07-09T06:08:20;101754.16;;;18.95;81.62
35910;BME280;22004;49.120;-0.200;2023-07-09T06:10:57;101766.72;;;19.02;80.64
35910;BME280;22004;49.120;-0.200;2023-07-09T06:13:23;101779.06;;;18.98;81.54
35910;BME280;22004;49.120;-0.200;2023-07-09T06:15:50;101802.31;;;19.01;80.79
35910;BME280;22004;49.120;-0.200;2023-07-09T06:18:16;101826.56;;;18.82;82.71
35910;BME280;22004;49.120;-0.200;2023-07-09T06:20:49;101842.81;;;18.43;85.46
35910;BME280;22004;49.120;-0.200;2023-07-09T06:23:15;101857.72;;;18.67;84.21
35910;BME280;22004;49.120;-0.200;2023-07-09T06:25:40;101853.50;;;18.64;84.64
35910;BME280;22004;49.120;-0.200;2023-07-09T06:28:05;101873.88;;;18.81;82.78
35910;BME280;22004;49.120;-0.200;2023-07-09T06:30:31;101875.34;;;19.04;80.80
35910;BME280;22004;49.120;-0.200;2023-07-09T06:32:56;101879.56;;;19.00;81.35
35910;BME280;22004;49.120;-0.200;2023-07-09T06:35:21;101884.16;;;18.86;82.37
35910;BME280;22004;49.120;-0.200;2023-07-09T06:37:47;101884.13;;;18.99;81.46
35910;BME280;22004;49.120;-0.200;2023-07-09T06:40:12;101878.28;;;18.96;81.77
35910;BME280;22004;49.120;-0.200;2023-07-09T06:42:38;101867.19;;;18.77;83.34
35910;BME280;22004;49.120;-0.200;2023-07-09T06:45:04;101864.44;;;18.84;82.83
35910;BME280;22004;49.120;-0.200;2023-07-09T06:47:29;101884.56;;;18.96;82.19
35910;BME280;22004;49.120;-0.200;2023-07-09T06:49:55;101867.59;;;18.94;82.19
35910;BME280;22004;49.120;-0.200;2023-07-09T06:52:20;101848.13;;;18.97;82.21
35910;BME280;22004;49.120;-0.200;2023-07-09T06:54:45;101858.41;;;19.02;82.39
35910;BME280;22004;49.120;-0.200;2023-07-09T06:57:11;101857.38;;;18.90;83.89
35910;BME280;22004;49.120;-0.200;2023-07-09T06:59:36;101861.56;;;19.05;82.27
35910;BME280;22004;49.120;-0.200;2023-07-09T07:02:03;101864.06;;;19.00;82.69
35910;BME280;22004;49.120;-0.200;2023-07-09T07:04:28;101856.91;;;18.99;82.65
35910;BME280;22004;49.120;-0.200;2023-07-09T07:06:54;101875.75;;;18.88;83.11
35910;BME280;22004;49.120;-0.200;2023-07-09T07:09:22;101872.56;;;18.64;85.44
35910;BME280;22004;49.120;-0.200;2023-07-09T07:11:48;101879.75;;;18.85;83.51
35910;BME280;22004;49.120;-0.200;2023-07-09T07:14:14;101869.06;;;18.83;83.55
35910;BME280;22004;49.120;-0.200;2023-07-09T07:16:39;101894.63;;;18.96;82.67
35910;BME280;22004;49.120;-0.200;2023-07-09T07:19:05;101888.16;;;19.10;82.25
35910;BME280;22004;49.120;-0.200;2023-07-09T07:21:31;101885.84;;;19.20;82.04
35910;BME280;22004;49.120;-0.200;2023-07-09T07:23:56;101885.19;;;19.18;82.42
35910;BME280;22004;49.120;-0.200;2023-07-09T07:26:22;101883.53;;;18.97;84.07
35910;BME280;22004;49.120;-0.200;2023-07-09T07:28:47;101876.41;;;18.90;83.32
35910;BME280;22004;49.120;-0.200;2023-07-09T07:31:13;101884.97;;;19.13;81.12
35910;BME280;22004;49.120;-0.200;2023-07-09T07:33:40;101899.22;;;19.02;83.19
35910;BME280;22004;49.120;-0.200;2023-07-09T07:36:07;101902.53;;;18.77;85.34
35910;BME280;22004;49.120;-0.200;2023-07-09T07:38:33;101902.75;;;18.76;87.82
35910;BME280;22004;49.120;-0.200;2023-07-09T07:41:00;101900.25;;;18.81;86.78
35910;BME280;22004;49.120;-0.200;2023-07-09T07:43:26;101880.41;;;19.20;82.16
35910;BME280;22004;49.120;-0.200;2023-07-09T07:45:51;101833.25;;;19.33;81.50
35910;BME280;22004;49.120;-0.200;2023-07-09T07:48:16;101837.25;;;19.30;82.44
35910;BME280;22004;49.120;-0.200;2023-07-09T07:50:42;101838.25;;;19.43;81.68
35910;BME280;22004;49.120;-0.200;2023-07-09T07:53:08;101848.91;;;19.57;80.98
35910;BME280;22004;49.120;-0.200;2023-07-09T07:55:34;101848.91;;;19.44;80.88
35910;BME280;22004;49.120;-0.200;2023-07-09T07:58:01;101854.34;;;19.57;79.61
35910;BME280;22004;49.120;-0.200;2023-07-09T08:00:29;101837.19;;;19.70;78.83
35910;BME280;22004;49.120;-0.200;2023-07-09T08:02:55;101836.81;;;19.40;80.12
35910;BME280;22004;49.120;-0.200;2023-07-09T08:05:20;101843.47;;;19.71;78.91
35910;BME280;22004;49.120;-0.200;2023-07-09T08:07:46;101837.41;;;19.49;80.21
35910;BME280;22004;49.120;-0.200;2023-07-09T08:10:12;101843.69;;;19.69;79.63
35910;BME280;22004;49.120;-0.200;2023-07-09T08:12:38;101833.84;;;19.55;79.71
35910;BME280;22004;49.120;-0.200;2023-07-09T08:15:04;101818.13;;;19.50;79.17
35910;BME280;22004;49.120;-0.200;2023-07-09T08:17:31;101802.84;;;19.49;79.35
35910;BME280;22004;49.120;-0.200;2023-07-09T08:19:56;101805.53;;;19.56;78.73
35910;BME280;22004;49.120;-0.200;2023-07-09T08:22:22;101834.03;;;19.53;78.93
35910;BME280;22004;49.120;-0.200;2023-07-09T08:24:48;101817.31;;;19.36;79.78
35910;BME280;22004;49.120;-0.200;2023-07-09T08:27:14;101805.00;;;19.21;81.24
35910;BME280;22004;49.120;-0.200;2023-07-09T08:29:39;101800.38;;;19.28;81.05
35910;BME280;22004;49.120;-0.200;2023-07-09T08:32:07;101796.00;;;19.07;82.87
35910;BME280;22004;49.120;-0.200;2023-07-09T08:34:33;101796.38;;;19.24;82.03
35910;BME280;22004;49.120;-0.200;2023-07-09T08:36:58;101802.69;;;19.04;83.18
35910;BME280;22004;49.120;-0.200;2023-07-09T08:39:24;101815.50;;;18.77;85.87
35910;BME280;22004;49.120;-0.200;2023-07-09T08:44:40;101827.44;;;18.96;85.18
35910;BME280;22004;49.120;-0.200;2023-07-09T08:47:18;101857.56;;;18.88;86.27
35910;BME280;22004;49.120;-0.200;2023-07-09T08:52:36;101895.03;;;18.86;85.62
35910;BME280;22004;49.120;-0.200;2023-07-09T08:55:05;101878.72;;;19.06;84.35
35910;BME280;22004;49.120;-0.200;2023-07-09T08:57:34;101866.34;;;18.70;88.11
35910;BME280;22004;49.120;-0.200;2023-07-09T09:02:56;101852.75;;;19.17;82.70
35910;BME280;22004;49.120;-0.200;2023-07-09T09:05:24;101836.81;;;19.40;80.75
35910;BME280;22004;49.120;-0.200;2023-07-09T09:08:19;101821.28;;;19.34;82.16
35910;BME280;22004;49.120;-0.200;2023-07-09T09:10:59;101830.91;;;19.43;81.59
35910;BME280;22004;49.120;-0.200;2023-07-09T09:13:30;101827.38;;;19.49;81.14
35910;BME280;22004;49.120;-0.200;2023-07-09T09:16:00;101820.91;;;19.30;82.27
35910;BME280;22004;49.120;-0.200;2023-07-09T09:18:30;101835.97;;;19.40;80.81
35910;BME280;22004;49.120;-0.200;2023-07-09T09:20:58;101832.38;;;19.39;81.83
35910;BME280;22004;49.120;-0.200;2023-07-09T09:23:36;101839.31;;;19.42;80.76
35910;BME280;22004;49.120;-0.200;2023-07-09T09:26:24;101847.28;;;19.30;82.24
35910;BME280;22004;49.120;-0.200;2023-07-09T09:28:50;101824.22;;;18.59;87.43
35910;BME280;22004;49.120;-0.200;2023-07-09T09:31:17;101831.81;;;19.17;83.59
35910;BME280;22004;49.120;-0.200;2023-07-09T09:33:44;101829.31;;;19.16;84.11
35910;BME280;22004;49.120;-0.200;2023-07-09T09:36:24;101836.84;;;19.20;84.42
35910;BME280;22004;49.120;-0.200;2023-07-09T09:38:50;101837.44;;;19.09;87.09
35910;BME280;22004;49.120;-0.200;2023-07-09T09:41:30;101838.53;;;19.01;86.35
35910;BME280;22004;49.120;-0.200;2023-07-09T09:43:56;101848.97;;;18.91;87.69
35910;BME280;22004;49.120;-0.200;2023-07-09T09:46:26;101847.50;;;18.89;88.63
35910;BME280;22004;49.120;-0.200;2023-07-09T09:48:58;101845.00;;;18.80;89.31
35910;BME280;22004;49.120;-0.200;2023-07-09T09:51:24;101855.47;;;18.70;88.93
35910;BME280;22004;49.120;-0.200;2023-07-09T09:53:58;101851.47;;;18.99;85.93
35910;BME280;22004;49.120;-0.200;2023-07-09T09:56:27;101858.00;;;19.05;85.03
35910;BME280;22004;49.120;-0.200;2023-07-09T09:58:54;101877.03;;;19.25;84.91
35910;BME280;22004;49.120;-0.200;2023-07-09T10:01:27;101889.38;;;19.07;87.17
35910;BME280;22004;49.120;-0.200;2023-07-09T10:03:56;101888.13;;;18.90;88.38
35910;BME280;22004;49.120;-0.200;2023-07-09T10:06:33;101886.03;;;19.19;84.74
35910;BME280;22004;49.120;-0.200;2023-07-09T10:11:58;101894.19;;;18.99;86.71
35910;BME280;22004;49.120;-0.200;2023-07-09T10:15:31;101884.59;;;19.29;82.73
35910;BME280;22004;49.120;-0.200;2023-07-09T10:25:55;101892.50;;;19.71;83.45
35910;BME280;22004;49.120;-0.200;2023-07-09T10:39:26;101896.53;;;20.64;80.00
35910;BME280;22004;49.120;-0.200;2023-07-09T10:41:57;101892.22;;;20.50;81.96
35910;BME280;22004;49.120;-0.200;2023-07-09T10:44:46;101895.25;;;20.29;81.74
35910;BME280;22004;49.120;-0.200;2023-07-09T10:47:27;101906.28;;;19.96;80.68
35910;BME280;22004;49.120;-0.200;2023-07-09T10:49:54;101898.13;;;19.89;82.91
35910;BME280;22004;49.120;-0.200;2023-07-09T10:52:30;101890.38;;;19.86;83.31
35910;BME280;22004;49.120;-0.200;2023-07-09T10:55:02;101885.59;;;19.75;82.64
35910;BME280;22004;49.120;-0.200;2023-07-09T10:57:32;101873.19;;;19.59;82.83
35910;BME280;22004;49.120;-0.200;2023-07-09T11:00:00;101870.94;;;19.43;82.06
35910;BME280;22004;49.120;-0.200;2023-07-09T11:02:30;101878.47;;;19.67;82.01
35910;BME280;22004;49.120;-0.200;2023-07-09T11:10:38;101895.00;;;19.72;81.39
35910;BME280;22004;49.120;-0.200;2023-07-09T11:13:35;101906.72;;;19.73;83.62
35910;BME280;22004;49.120;-0.200;2023-07-09T11:16:03;101902.97;;;19.67;82.85
35910;BME280;22004;49.120;-0.200;2023-07-09T11:18:33;101899.59;;;19.85;82.20
35910;BME280;22004;49.120;-0.200;2023-07-09T11:21:16;101899.78;;;19.83;83.58
35910;BME280;22004;49.120;-0.200;2023-07-09T11:23:55;101908.78;;;19.97;84.88
35910;BME280;22004;49.120;-0.200;2023-07-09T11:26:28;101903.75;;;19.87;83.95
35910;BME280;22004;49.120;-0.200;2023-07-09T11:36:30;101891.75;;;20.60;79.63
35910;BME280;22004;49.120;-0.200;2023-07-09T11:38:56;101891.38;;;20.43;79.10
35910;BME280;22004;49.120;-0.200;2023-07-09T11:41:25;101893.09;;;20.76;78.67
35910;BME280;22004;49.120;-0.200;2023-07-09T11:43:51;101887.75;;;21.19;81.41
35910;BME280;22004;49.120;-0.200;2023-07-09T11:46:18;101892.22;;;21.38;80.73
35910;BME280;22004;49.120;-0.200;2023-07-09T11:48:46;101885.19;;;21.24;78.45
35910;BME280;22004;49.120;-0.200;2023-07-09T11:51:21;101876.50;;;21.34;78.74
35910;BME280;22004;49.120;-0.200;2023-07-09T11:53:52;101874.25;;;21.67;76.64
35910;BME280;22004;49.120;-0.200;2023-07-09T11:56:21;101878.91;;;21.85;73.87
35910;BME280;22004;49.120;-0.200;2023-07-09T11:58:51;101876.63;;;22.19;76.37
35910;BME280;22004;49.120;-0.200;2023-07-09T12:01:20;101867.47;;;22.07;75.76
35910;BME280;22004;49.120;-0.200;2023-07-09T12:03:47;101861.97;;;22.13;73.29
35910;BME280;22004;49.120;-0.200;2023-07-09T12:06:22;101860.44;;;21.99;71.95
35910;BME280;22004;49.120;-0.200;2023-07-09T12:08:48;101857.72;;;21.99;75.32
35910;BME280;22004;49.120;-0.200;2023-07-09T12:11:43;101862.25;;;22.05;73.38
35910;BME280;22004;49.120;-0.200;2023-07-09T12:14:14;101871.31;;;22.66;71.68
35910;BME280;22004;49.120;-0.200;2023-07-09T12:16:47;101864.56;;;22.68;75.79
35910;BME280;22004;49.120;-0.200;2023-07-09T12:19:15;101866.09;;;22.64;72.74
35910;BME280;22004;49.120;-0.200;2023-07-09T12:21:43;101865.59;;;22.67;68.76
35910;BME280;22004;49.120;-0.200;2023-07-09T12:24:19;101865.53;;;22.86;72.74
35910;BME280;22004;49.120;-0.200;2023-07-09T12:26:52;101869.19;;;22.98;71.30
35910;BME280;22004;49.120;-0.200;2023-07-09T12:29:18;101873.59;;;22.99;70.86
35910;BME280;22004;49.120;-0.200;2023-07-09T12:31:44;101870.22;;;22.55;70.72
35910;BME280;22004;49.120;-0.200;2023-07-09T12:34:12;101879.25;;;22.44;75.16
35910;BME280;22004;49.120;-0.200;2023-07-09T12:36:39;101861.88;;;22.20;73.98
35910;BME280;22004;49.120;-0.200;2023-07-09T12:39:10;101876.03;;;21.99;72.42
35910;BME280;22004;49.120;-0.200;2023-07-09T12:41:40;101876.75;;;21.87;73.80
35910;BME280;22004;49.120;-0.200;2023-07-09T12:46:40;101864.47;;;21.78;71.77
35910;BME280;22004;49.120;-0.200;2023-07-09T12:49:05;101857.78;;;21.92;70.55
35910;BME280;22004;49.120;-0.200;2023-07-09T12:51:31;101857.94;;;22.16;72.15
35910;BME280;22004;49.120;-0.200;2023-07-09T12:54:10;101857.09;;;22.15;69.41
35910;BME280;22004;49.120;-0.200;2023-07-09T12:56:37;101863.59;;;22.63;72.46
35910;BME280;22004;49.120;-0.200;2023-07-09T12:59:14;101863.00;;;22.61;70.55
35910;BME280;22004;49.120;-0.200;2023-07-09T13:01:41;101856.06;;;22.88;70.63
35910;BME280;22004;49.120;-0.200;2023-07-09T13:04:08;101858.34;;;22.31;69.42
35910;BME280;22004;49.120;-0.200;2023-07-09T13:06:38;101854.50;;;22.21;68.30
35910;BME280;22004;49.120;-0.200;2023-07-09T13:09:13;101860.13;;;22.26;63.01
35910;BME280;22004;49.120;-0.200;2023-07-09T13:11:40;101861.41;;;22.05;60.28
35910;BME280;22004;49.120;-0.200;2023-07-09T13:14:27;101864.84;;;22.00;63.26
35910;BME280;22004;49.120;-0.200;2023-07-09T13:17:05;101860.94;;;22.08;68.00
35910;BME280;22004;49.120;-0.200;2023-07-09T13:19:31;101852.47;;;22.16;66.48
35910;BME280;22004;49.120;-0.200;2023-07-09T13:21:56;101853.16;;;22.11;67.58
35910;BME280;22004;49.120;-0.200;2023-07-09T13:24:24;101855.25;;;22.28;65.53
35910;BME280;22004;49.120;-0.200;2023-07-09T13:26:50;101853.69;;;22.50;66.87
35910;BME280;22004;49.120;-0.200;2023-07-09T13:29:18;101851.59;;;22.64;65.80
35910;BME280;22004;49.120;-0.200;2023-07-09T13:31:44;101853.72;;;22.32;64.22
35910;BME280;22004;49.120;-0.200;2023-07-09T13:34:19;101849.69;;;22.34;64.77
35910;BME280;22004;49.120;-0.200;2023-07-09T13:36:45;101856.56;;;22.25;67.12
35910;BME280;22004;49.120;-0.200;2023-07-09T13:39:11;101857.75;;;22.29;66.93